^^
Station Historical Data
Daily Summary for February 2, 2021 Units:  English    Metric   Both
Daily Weekly Monthly Yearly
  High: Low: Average:
Temperature: 33.6 °F 23 °F 26.5 °F
Dew Point: 24.1 °F 16.2 °F 19.6 °F
Humidity: 82% 57% 75%
Wind Speed: 7mph 1mph 4.3mph
Wind Gust: 18mph - -
Wind- - West
Pressure: 30.15 in 30.05 in -
Precipitation: 0.00 in    
 
 
Tabular Data for February 2, 2021
Time Temperature Dew Point Pressure Wind Wind Speed Wind Gust Humidity Rainfall Rate (Hourly) solar
00:00 23.4 °F 18.1 °F 30.15 in NNW 4 mph 4 mph 80% 0.00 in 0 W/m2
00:05 23.4 °F 18.1 °F 30.15 in NNW 4 mph 5 mph 80% 0.00 in 0 W/m2
00:10 23.4 °F 18.1 °F 30.15 in NNW 4 mph 4 mph 80% 0.00 in 0 W/m2
00:15 23.4 °F 18.1 °F 30.15 in NW 4 mph 4 mph 80% 0.00 in 0 W/m2
00:20 23.4 °F 18.1 °F 30.15 in NW 4 mph 4 mph 80% 0.00 in 0 W/m2
00:25 23.4 °F 18.1 °F 30.14 in NW 5 mph 5 mph 80% 0.00 in 0 W/m2
00:30 23.5 °F 18.2 °F 30.14 in North 5 mph 6 mph 80% 0.00 in 0 W/m2
00:35 23.5 °F 18.2 °F 30.14 in NNW 5 mph 6 mph 80% 0.00 in 0 W/m2
00:40 23.5 °F 18.2 °F 30.14 in NNW 4 mph 4 mph 80% 0.00 in 0 W/m2
00:45 23.6 °F 18.3 °F 30.14 in NNW 4 mph 4 mph 80% 0.00 in 0 W/m2
00:50 23.8 °F 18.5 °F 30.13 in NNW 4 mph 4 mph 80% 0.00 in 0 W/m2
00:55 23.8 °F 18.5 °F 30.13 in North 4 mph 8 mph 80% 0.00 in 0 W/m2
01:00 24 °F 18.7 °F 30.13 in North 5 mph 5 mph 80% 0.00 in 0 W/m2
01:05 24.2 °F 18.6 °F 30.13 in NW 5 mph 5 mph 79% 0.00 in 0 W/m2
01:10 24.4 °F 18.8 °F 30.13 in NNW 4 mph 4 mph 79% 0.00 in 0 W/m2
01:15 24.5 °F 18.9 °F 30.13 in North 4 mph 4 mph 79% 0.00 in 0 W/m2
01:20 24.7 °F 19.1 °F 30.13 in North 4 mph 4 mph 79% 0.00 in 0 W/m2
01:25 24.8 °F 18.9 °F 30.13 in North 3 mph 9 mph 78% 0.00 in 0 W/m2
01:30 24.9 °F 19 °F 30.13 in NNW 4 mph 4 mph 78% 0.00 in 0 W/m2
01:35 24.9 °F 19 °F 30.13 in North 4 mph 4 mph 78% 0.00 in 0 W/m2
01:40 25.1 °F 19.2 °F 30.13 in NNW 4 mph 4 mph 78% 0.00 in 0 W/m2
01:45 25.2 °F 19.3 °F 30.13 in NNW 5 mph 5 mph 78% 0.00 in 0 W/m2
01:50 25.4 °F 19.5 °F 30.13 in NNE 5 mph 5 mph 78% 0.00 in 0 W/m2
01:55 25.4 °F 19.5 °F 30.12 in NE 5 mph 5 mph 78% 0.00 in 0 W/m2
02:00 25.4 °F 19.5 °F 30.12 in NNW 4 mph 4 mph 78% 0.00 in 0 W/m2
02:05 25.4 °F 19.2 °F 30.12 in North 5 mph 6 mph 77% 0.00 in 0 W/m2
02:10 25.3 °F 18.8 °F 30.12 in NNW 5 mph 5 mph 76% 0.00 in 0 W/m2
02:15 25.3 °F 18.8 °F 30.12 in North 5 mph 5 mph 76% 0.00 in 0 W/m2
02:20 25.1 °F 18.9 °F 30.12 in NNW 4 mph 9 mph 77% 0.00 in 0 W/m2
02:25 25 °F 18.5 °F 30.12 in NW 4 mph 9 mph 76% 0.00 in 0 W/m2
02:30 25 °F 18.5 °F 30.12 in NW 4 mph 4 mph 76% 0.00 in 0 W/m2
02:35 24.8 °F 18.3 °F 30.12 in NNW 5 mph 8 mph 76% 0.00 in 0 W/m2
02:40 24.8 °F 18.3 °F 30.12 in NNE 5 mph 10 mph 76% 0.00 in 0 W/m2
02:45 24.7 °F 18.5 °F 30.12 in NNW 5 mph 10 mph 77% 0.00 in 0 W/m2
02:50 24.6 °F 18.4 °F 30.13 in North 5 mph 5 mph 77% 0.00 in 0 W/m2
02:55 24.6 °F 18.4 °F 30.12 in North 5 mph 5 mph 77% 0.00 in 0 W/m2
03:00 24.5 °F 18.3 °F 30.13 in NNW 5 mph 5 mph 77% 0.00 in 0 W/m2
03:05 24.5 °F 18.6 °F 30.12 in NNW 4 mph 9 mph 78% 0.00 in 0 W/m2
03:10 24.4 °F 18.2 °F 30.12 in North 4 mph 4 mph 77% 0.00 in 0 W/m2
03:15 24.3 °F 18.4 °F 30.12 in NNW 3 mph 8 mph 78% 0.00 in 0 W/m2
03:20 24.1 °F 18.2 °F 30.12 in North 3 mph 3 mph 78% 0.00 in 0 W/m2
03:25 24 °F 18.1 °F 30.12 in NNW 4 mph 4 mph 78% 0.00 in 0 W/m2
03:30 24 °F 18.1 °F 30.12 in NNW 4 mph 4 mph 78% 0.00 in 0 W/m2
03:35 23.9 °F 18 °F 30.12 in NNW 4 mph 4 mph 78% 0.00 in 0 W/m2
03:40 23.8 °F 17.9 °F 30.12 in NNW 4 mph 4 mph 78% 0.00 in 0 W/m2
03:45 23.8 °F 18.2 °F 30.12 in NNW 5 mph 8 mph 79% 0.00 in 0 W/m2
03:50 23.8 °F 17.9 °F 30.12 in NNW 5 mph 5 mph 78% 0.00 in 0 W/m2
03:55 23.8 °F 18.2 °F 30.11 in North 5 mph 5 mph 79% 0.00 in 0 W/m2
04:00 23.8 °F 18.2 °F 30.11 in NW 5 mph 5 mph 79% 0.00 in 0 W/m2
04:05 23.8 °F 18.2 °F 30.11 in NNW 4 mph 5 mph 79% 0.00 in 0 W/m2
04:10 23.8 °F 18.2 °F 30.11 in WNW 4 mph 7 mph 79% 0.00 in 0 W/m2
04:15 23.8 °F 18.5 °F 30.11 in North 4 mph 7 mph 80% 0.00 in 0 W/m2
04:20 23.8 °F 18.5 °F 30.12 in North 4 mph 6 mph 80% 0.00 in 0 W/m2
04:25 23.8 °F 18.5 °F 30.12 in NNW 4 mph 6 mph 80% 0.00 in 0 W/m2
04:30 23.8 °F 18.5 °F 30.11 in North 4 mph 4 mph 80% 0.00 in 0 W/m2
04:35 24 °F 19 °F 30.11 in North 4 mph 5 mph 81% 0.00 in 0 W/m2
04:40 24 °F 19 °F 30.11 in NNW 4 mph 4 mph 81% 0.00 in 0 W/m2
04:45 24 °F 19 °F 30.11 in NNW 4 mph 4 mph 81% 0.00 in 0 W/m2
04:50 24 °F 19 °F 30.11 in NNW 4 mph 4 mph 81% 0.00 in 0 W/m2
04:55 24 °F 19 °F 30.11 in North 4 mph 4 mph 81% 0.00 in 0 W/m2
05:00 24 °F 19 °F 30.11 in NW 4 mph 4 mph 81% 0.00 in 0 W/m2
05:05 24 °F 19 °F 30.11 in NW 4 mph 4 mph 81% 0.00 in 0 W/m2
05:10 23.9 °F 18.9 °F 30.11 in NW 3 mph 3 mph 81% 0.00 in 0 W/m2
05:15 24 °F 19 °F 30.11 in North 3 mph 9 mph 81% 0.00 in 0 W/m2
05:20 23.9 °F 18.9 °F 30.11 in NNW 3 mph 3 mph 81% 0.00 in 0 W/m2
05:25 23.8 °F 18.8 °F 30.11 in NNW 3 mph 3 mph 81% 0.00 in 0 W/m2
05:30 23.7 °F 18.7 °F 30.11 in NNW 4 mph 5 mph 81% 0.00 in 0 W/m2
05:35 23.6 °F 18.3 °F 30.11 in NW 3 mph 5 mph 80% 0.00 in 0 W/m2
05:40 23.5 °F 18.5 °F 30.11 in NNW 3 mph 3 mph 81% 0.00 in 0 W/m2
05:45 23.3 °F 18.3 °F 30.11 in NW 4 mph 4 mph 81% 0.00 in 0 W/m2
05:50 23.2 °F 18.2 °F 30.12 in NNW 4 mph 5 mph 81% 0.00 in 0 W/m2
05:55 23.1 °F 18.1 °F 30.12 in North 3 mph 5 mph 81% 0.00 in 0 W/m2
06:00 23.1 °F 18.1 °F 30.12 in North 3 mph 3 mph 81% 0.00 in 0 W/m2
06:05 23 °F 18 °F 30.12 in NNW 4 mph 4 mph 81% 0.00 in 0 W/m2
06:10 23 °F 18 °F 30.12 in NNW 4 mph 4 mph 81% 0.00 in 0 W/m2
06:15 23 °F 18 °F 30.11 in NE 4 mph 4 mph 81% 0.00 in 0 W/m2
06:20 23 °F 18.3 °F 30.12 in North 4 mph 4 mph 82% 0.00 in 0 W/m2
06:25 23.1 °F 18.4 °F 30.12 in NNE 4 mph 7 mph 82% 0.00 in 0 W/m2
06:30 23 °F 18.3 °F 30.12 in North 4 mph 4 mph 82% 0.00 in 0 W/m2
06:35 23.1 °F 18.4 °F 30.12 in North 4 mph 4 mph 82% 0.00 in 0 W/m2
06:40 23.2 °F 18.5 °F 30.12 in NW 4 mph 12 mph 82% 0.00 in 0 W/m2
06:45 23.3 °F 18.6 °F 30.12 in NNW 4 mph 12 mph 82% 0.00 in 0 W/m2
06:50 23.4 °F 18.7 °F 30.12 in North 5 mph 9 mph 82% 0.00 in 0 W/m2
06:55 23.5 °F 18.8 °F 30.12 in NNW 5 mph 9 mph 82% 0.00 in 0 W/m2
07:00 23.6 °F 18.9 °F 30.12 in NNW 5 mph 5 mph 82% 0.00 in 0 W/m2
07:05 23.7 °F 19 °F 30.12 in North 5 mph 5 mph 82% 0.00 in 0 W/m2
07:10 23.9 °F 19.2 °F 30.12 in NW 5 mph 6 mph 82% 0.00 in 0 W/m2
07:15 24 °F 19.3 °F 30.12 in North 5 mph 6 mph 82% 0.00 in 0 W/m2
07:20 24.1 °F 19.4 °F 30.12 in NNW 5 mph 5 mph 82% 0.00 in 0 W/m2
07:25 24.2 °F 19.5 °F 30.12 in NNE 5 mph 5 mph 82% 0.00 in 0 W/m2
07:30 24.2 °F 19.2 °F 30.11 in NNW 5 mph 6 mph 81% 0.00 in 0 W/m2
07:35 24.2 °F 19.2 °F 30.12 in NW 6 mph 6 mph 81% 0.00 in 0 W/m2
07:40 24.2 °F 19.2 °F 30.12 in NNW 7 mph 7 mph 81% 0.00 in 0 W/m2
07:50 24.1 °F 19.1 °F 30.12 in NW 6 mph 6 mph 81% 0.00 in 5 W/m2
07:55 24.1 °F 19.1 °F 30.12 in North 5 mph 6 mph 81% 0.00 in 11 W/m2
08:00 24.1 °F 19.1 °F 30.12 in NW 5 mph 5 mph 81% 0.00 in 19 W/m2
08:05 24.2 °F 19.2 °F 30.12 in North 5 mph 5 mph 81% 0.00 in 26 W/m2
08:10 24.2 °F 19.2 °F 30.12 in NNW 5 mph 11 mph 81% 0.00 in 33 W/m2
08:15 24.3 °F 19.3 °F 30.12 in North 6 mph 11 mph 81% 0.00 in 37 W/m2
08:20 24.5 °F 19.8 °F 30.12 in North 6 mph 6 mph 82% 0.00 in 40 W/m2
08:25 24.6 °F 19.9 °F 30.12 in North 6 mph 10 mph 82% 0.00 in 44 W/m2
08:30 24.7 °F 19.7 °F 30.11 in NE 5 mph 5 mph 81% 0.00 in 47 W/m2
08:35 24.8 °F 19.8 °F 30.12 in North 6 mph 6 mph 81% 0.00 in 49 W/m2
08:40 24.8 °F 19.8 °F 30.12 in North 5 mph 5 mph 81% 0.00 in 51 W/m2
08:45 24.9 °F 20.2 °F 30.12 in North 5 mph 5 mph 82% 0.00 in 53 W/m2
08:50 25 °F 20.3 °F 30.12 in NNW 5 mph 10 mph 82% 0.00 in 54 W/m2
08:55 25 °F 20.3 °F 30.11 in North 4 mph 10 mph 82% 0.00 in 56 W/m2
09:00 25.1 °F 20.4 °F 30.11 in North 4 mph 5 mph 82% 0.00 in 58 W/m2
09:05 25.1 °F 20.1 °F 30.11 in NNE 4 mph 5 mph 81% 0.00 in 60 W/m2
09:10 25.1 °F 20.1 °F 30.11 in NNE 5 mph 5 mph 81% 0.00 in 63 W/m2
09:15 25.2 °F 20.2 °F 30.11 in North 6 mph 6 mph 81% 0.00 in 69 W/m2
09:20 25.1 °F 20.1 °F 30.11 in North 6 mph 6 mph 81% 0.00 in 74 W/m2
09:25 25.2 °F 20.5 °F 30.11 in NNW 6 mph 8 mph 82% 0.00 in 88 W/m2
09:30 25.2 °F 20.5 °F 30.11 in North 6 mph 6 mph 82% 0.00 in 100 W/m2
09:35 25.3 °F 20.6 °F 30.11 in North 6 mph 9 mph 82% 0.00 in 114 W/m2
09:40 25.4 °F 20.7 °F 30.11 in NNE 6 mph 10 mph 82% 0.00 in 128 W/m2
09:45 25.6 °F 20.6 °F 30.11 in North 5 mph 10 mph 81% 0.00 in 144 W/m2
09:50 25.7 °F 20.7 °F 30.11 in NNE 6 mph 7 mph 81% 0.00 in 160 W/m2
09:55 26 °F 21 °F 30.11 in NW 6 mph 7 mph 81% 0.00 in 176 W/m2
10:00 26.1 °F 21.1 °F 30.11 in NNE 6 mph 7 mph 81% 0.00 in 193 W/m2
10:05 26.1 °F 21.1 °F 30.11 in North 7 mph 7 mph 81% 0.00 in 193 W/m2
10:10 26.3 °F 21.3 °F 30.11 in NNW 6 mph 6 mph 81% 0.00 in 193 W/m2
10:15 26.4 °F 21.1 °F 30.11 in North 6 mph 6 mph 80% 0.00 in 192 W/m2
10:20 26.5 °F 21.2 °F 30.11 in NNW 7 mph 18 mph 80% 0.00 in 229 W/m2
10:25 26.7 °F 21.4 °F 30.11 in NNW 7 mph 18 mph 80% 0.00 in 244 W/m2
10:30 26.8 °F 21.2 °F 30.11 in NNW 7 mph 7 mph 79% 0.00 in 204 W/m2
10:35 26.9 °F 21.3 °F 30.11 in NNE 6 mph 8 mph 79% 0.00 in 148 W/m2
10:40 27.1 °F 21.2 °F 30.11 in North 7 mph 7 mph 78% 0.00 in 225 W/m2
10:45 27.2 °F 21.2 °F 30.11 in North 7 mph 12 mph 78% 0.00 in 199 W/m2
10:50 27.3 °F 21.3 °F 30.11 in NNW 7 mph 8 mph 78% 0.00 in 202 W/m2
10:55 27.7 °F 21.4 °F 30.10 in NW 7 mph 8 mph 77% 0.00 in 158 W/m2
11:00 27.7 °F 21.4 °F 30.11 in NW 7 mph 7 mph 77% 0.00 in 148 W/m2
11:05 27.9 °F 21.6 °F 30.10 in NNW 7 mph 7 mph 77% 0.00 in 227 W/m2
11:10 28 °F 21.4 °F 30.10 in North 6 mph 6 mph 76% 0.00 in 220 W/m2
11:15 27.9 °F 21 °F 30.10 in North 6 mph 6 mph 75% 0.00 in 258 W/m2
11:20 28 °F 21.1 °F 30.10 in North 6 mph 9 mph 75% 0.00 in 292 W/m2
11:25 28.4 °F 21.8 °F 30.10 in NNW 5 mph 9 mph 76% 0.00 in 323 W/m2
11:30 28.7 °F 21.8 °F 30.10 in NNW 5 mph 5 mph 75% 0.00 in 355 W/m2
11:35 28.7 °F 21.8 °F 30.10 in NW 5 mph 9 mph 75% 0.00 in 357 W/m2
11:40 28.8 °F 21.9 °F 30.10 in North 6 mph 6 mph 75% 0.00 in 369 W/m2
11:45 29.2 °F 21.6 °F 30.10 in NE 6 mph 6 mph 73% 0.00 in 457 W/m2
11:50 29.6 °F 22 °F 30.10 in North 5 mph 5 mph 73% 0.00 in 501 W/m2
11:55 29.8 °F 21.5 °F 30.10 in NW 6 mph 6 mph 71% 0.00 in 455 W/m2
12:00 30 °F 21.7 °F 30.10 in North 6 mph 6 mph 71% 0.00 in 485 W/m2
12:05 30.4 °F 21.8 °F 30.09 in North 5 mph 6 mph 70% 0.00 in 506 W/m2
12:10 30.5 °F 21.9 °F 30.09 in NNW 5 mph 5 mph 70% 0.00 in 515 W/m2
12:15 30.9 °F 21.9 °F 30.09 in NW 4 mph 5 mph 69% 0.00 in 519 W/m2
12:20 31.2 °F 22.2 °F 30.09 in North 3 mph 3 mph 69% 0.00 in 520 W/m2
12:25 31.4 °F 22.4 °F 30.09 in North 3 mph 3 mph 69% 0.00 in 524 W/m2
12:30 31 °F 21.7 °F 30.09 in NNE 4 mph 4 mph 68% 0.00 in 524 W/m2
12:35 30.9 °F 21.9 °F 30.09 in North 4 mph 4 mph 69% 0.00 in 526 W/m2
12:40 31.1 °F 21.4 °F 30.09 in NE 4 mph 4 mph 67% 0.00 in 529 W/m2
12:45 31.2 °F 22.2 °F 30.09 in NE 4 mph 4 mph 69% 0.00 in 527 W/m2
12:50 31.2 °F 22.2 °F 30.09 in NE 4 mph 4 mph 69% 0.00 in 533 W/m2
12:55 31.5 °F 22.1 °F 30.09 in NE 4 mph 4 mph 68% 0.00 in 522 W/m2
13:00 31.7 °F 22.3 °F 30.09 in North 4 mph 4 mph 68% 0.00 in 534 W/m2
13:05 31.8 °F 22.1 °F 30.09 in ENE 4 mph 5 mph 67% 0.00 in 534 W/m2
13:10 32 °F 23 °F 30.08 in NNW 4 mph 4 mph 69% 0.00 in 501 W/m2
13:15 32.1 °F 23.1 °F 30.08 in NNE 4 mph 4 mph 69% 0.00 in 473 W/m2
13:20 32.1 °F 23.1 °F 30.08 in NNW 4 mph 4 mph 69% 0.00 in 501 W/m2
13:25 32.3 °F 22.9 °F 30.08 in NE 4 mph 5 mph 68% 0.00 in 504 W/m2
13:30 32.2 °F 22.5 °F 30.08 in NNE 4 mph 4 mph 67% 0.00 in 512 W/m2
13:35 32.5 °F 23.5 °F 30.08 in NNE 4 mph 11 mph 69% 0.00 in 394 W/m2
13:40 32.2 °F 23.2 °F 30.08 in NNW 4 mph 4 mph 69% 0.00 in 411 W/m2
13:45 32.3 °F 23.6 °F 30.08 in NNE 4 mph 4 mph 70% 0.00 in 464 W/m2
13:50 32.5 °F 23.5 °F 30.07 in North 4 mph 8 mph 69% 0.00 in 403 W/m2
13:55 32.8 °F 22.7 °F 30.07 in NNW 4 mph 12 mph 66% 0.00 in 396 W/m2
14:00 32.8 °F 22 °F 30.08 in NE 4 mph 4 mph 64% 0.00 in 445 W/m2
14:05 33.2 °F 21.6 °F 30.08 in North 4 mph 4 mph 62% 0.00 in 496 W/m2
14:10 33.6 °F 22.3 °F 30.08 in North 4 mph 4 mph 63% 0.00 in 494 W/m2
14:15 33.3 °F 21.7 °F 30.08 in NNW 4 mph 9 mph 62% 0.00 in 431 W/m2
14:20 33.1 °F 19.5 °F 30.08 in NE 5 mph 5 mph 57% 0.00 in 399 W/m2
14:25 33.1 °F 19.5 °F 30.08 in NNW 6 mph 6 mph 57% 0.00 in 232 W/m2
14:30 33.3 °F 20.5 °F 30.07 in North 4 mph 9 mph 59% 0.00 in 338 W/m2
14:35 33.3 °F 20.5 °F 30.07 in North 4 mph 9 mph 59% 0.00 in 364 W/m2
14:40 33.3 °F 20.5 °F 30.07 in NNW 4 mph 4 mph 59% 0.00 in 411 W/m2
14:45 33.3 °F 20.5 °F 30.07 in North 3 mph 4 mph 59% 0.00 in 338 W/m2
14:50 33.3 °F 21.7 °F 30.07 in North 3 mph 5 mph 62% 0.00 in 276 W/m2
14:55 32.8 °F 22 °F 30.07 in North 3 mph 5 mph 64% 0.00 in 332 W/m2
15:00 32.5 °F 21.3 °F 30.07 in North 3 mph 4 mph 63% 0.00 in 322 W/m2
15:05 32.6 °F 23.9 °F 30.07 in NNE 3 mph 4 mph 70% 0.00 in 287 W/m2
15:10 32.5 °F 24.1 °F 30.07 in NNE 3 mph 3 mph 71% 0.00 in 267 W/m2
15:15 32.2 °F 23.8 °F 30.07 in North 3 mph 3 mph 71% 0.00 in 297 W/m2
15:20 32.3 °F 23.9 °F 30.07 in NNW 3 mph 3 mph 71% 0.00 in 195 W/m2
15:25 32 °F 24 °F 30.07 in North 3 mph 4 mph 72% 0.00 in 188 W/m2
15:30 31.6 °F 23.6 °F 30.07 in North 3 mph 5 mph 72% 0.00 in 167 W/m2
15:35 31.2 °F 23.2 °F 30.07 in North 3 mph 5 mph 72% 0.00 in 134 W/m2
15:40 30.8 °F 23.2 °F 30.07 in NNE 2 mph 2 mph 73% 0.00 in 141 W/m2
15:45 30.8 °F 23.2 °F 30.07 in NNW 2 mph 2 mph 73% 0.00 in 134 W/m2
15:50 30.7 °F 22.7 °F 30.07 in NNE 2 mph 2 mph 72% 0.00 in 125 W/m2
15:55 30.6 °F 23 °F 30.07 in NNE 2 mph 2 mph 73% 0.00 in 123 W/m2
16:00 30.4 °F 23.1 °F 30.07 in North 2 mph 2 mph 74% 0.00 in 98 W/m2
16:05 30.6 °F 23.3 °F 30.07 in North 1 mph 2 mph 74% 0.00 in 111 W/m2
16:10 30.3 °F 23 °F 30.07 in North 1 mph 1 mph 74% 0.00 in 109 W/m2
16:15 30.1 °F 23.1 °F 30.07 in North 1 mph 1 mph 75% 0.00 in 111 W/m2
16:20 29.7 °F 22.7 °F 30.07 in North 1 mph 1 mph 75% 0.00 in 111 W/m2
16:25 29.4 °F 22.8 °F 30.07 in North 2 mph 2 mph 76% 0.00 in 111 W/m2
16:30 29.5 °F 22.9 °F 30.07 in NNE 2 mph 2 mph 76% 0.00 in 93 W/m2
16:35 29.4 °F 22.8 °F 30.07 in North 1 mph 2 mph 76% 0.00 in 74 W/m2
16:40 29.1 °F 22.8 °F 30.07 in North 1 mph 1 mph 77% 0.00 in 77 W/m2
16:45 28.9 °F 22.6 °F 30.07 in NNE 1 mph 1 mph 77% 0.00 in 69 W/m2
16:50 28.5 °F 22.5 °F 30.07 in North 1 mph 1 mph 78% 0.00 in 84 W/m2
16:55 28.5 °F 22.5 °F 30.07 in North 1 mph 1 mph 78% 0.00 in 70 W/m2
17:00 28.6 °F 21.4 °F 30.07 in NNW 1 mph 3 mph 74% 0.00 in 51 W/m2
17:05 28.6 °F 20.7 °F 30.07 in North 2 mph 5 mph 72% 0.00 in 39 W/m2
17:10 28.7 °F 20.1 °F 30.07 in North 3 mph 3 mph 70% 0.00 in 33 W/m2
17:15 28.7 °F 20.1 °F 30.07 in North 3 mph 5 mph 70% 0.00 in 28 W/m2
17:20 28.7 °F 20.5 °F 30.07 in North 3 mph 5 mph 71% 0.00 in 25 W/m2
17:25 28.5 °F 20.3 °F 30.07 in NW 3 mph 5 mph 71% 0.00 in 28 W/m2
17:30 28.3 °F 20.1 °F 30.07 in NNW 2 mph 2 mph 71% 0.00 in 23 W/m2
17:35 28.3 °F 19.8 °F 30.07 in NNW 2 mph 2 mph 70% 0.00 in 14 W/m2
17:40 28.4 °F 19.9 °F 30.07 in NNW 3 mph 4 mph 70% 0.00 in 11 W/m2
17:45 28.3 °F 20.1 °F 30.07 in NNW 3 mph 4 mph 71% 0.00 in 7 W/m2
17:50 28.1 °F 19.9 °F 30.07 in North 3 mph 3 mph 71% 0.00 in 5 W/m2
17:55 27.8 °F 19.6 °F 30.06 in NW 4 mph 4 mph 71% 0.00 in 5 W/m2
18:00 27.7 °F 19.8 °F 30.06 in NNW 3 mph 3 mph 72% 0.00 in 0 W/m2
18:05 27.7 °F 19.8 °F 30.07 in NW 3 mph 6 mph 72% 0.00 in 0 W/m2
18:10 27.4 °F 19.9 °F 30.07 in NW 3 mph 3 mph 73% 0.00 in 0 W/m2
18:15 27 °F 20.1 °F 30.07 in NNW 3 mph 3 mph 75% 0.00 in 0 W/m2
18:20 26.6 °F 19.7 °F 30.07 in NW 2 mph 2 mph 75% 0.00 in 0 W/m2
18:25 26.3 °F 19.8 °F 30.06 in NNW 2 mph 2 mph 76% 0.00 in 0 W/m2
18:30 25.9 °F 19.7 °F 30.07 in NNW 1 mph 1 mph 77% 0.00 in 0 W/m2
18:35 25.8 °F 19.6 °F 30.07 in NNW 2 mph 2 mph 77% 0.00 in 0 W/m2
18:40 26.1 °F 19.3 °F 30.07 in North 2 mph 2 mph 75% 0.00 in 0 W/m2
18:45 26.5 °F 19 °F 30.07 in NNW 3 mph 6 mph 73% 0.00 in 0 W/m2
18:50 26.9 °F 18.7 °F 30.07 in WNW 3 mph 3 mph 71% 0.00 in 0 W/m2
18:55 26.9 °F 18.4 °F 30.07 in NW 3 mph 4 mph 70% 0.00 in 0 W/m2
19:00 27.1 °F 18.3 °F 30.07 in NW 4 mph 8 mph 69% 0.00 in 0 W/m2
19:05 27.2 °F 17.7 °F 30.06 in North 4 mph 8 mph 67% 0.00 in 0 W/m2
19:10 27.2 °F 17.7 °F 30.07 in NE 4 mph 4 mph 67% 0.00 in 0 W/m2
19:15 27.1 °F 17.9 °F 30.07 in North 5 mph 5 mph 68% 0.00 in 0 W/m2
19:20 26.9 °F 18.1 °F 30.07 in North 5 mph 5 mph 69% 0.00 in 0 W/m2
19:25 26.8 °F 18 °F 30.07 in North 5 mph 5 mph 69% 0.00 in 0 W/m2
19:30 26.5 °F 18 °F 30.07 in North 4 mph 4 mph 70% 0.00 in 0 W/m2
19:35 26.2 °F 17.7 °F 30.07 in NW 3 mph 4 mph 70% 0.00 in 0 W/m2
19:40 26.4 °F 17.3 °F 30.07 in North 3 mph 4 mph 68% 0.00 in 0 W/m2
19:45 26.8 °F 17 °F 30.07 in NW 5 mph 5 mph 66% 0.00 in 0 W/m2
19:50 26.8 °F 17.6 °F 30.08 in North 6 mph 6 mph 68% 0.00 in 0 W/m2
19:55 26.8 °F 17.3 °F 30.08 in North 6 mph 8 mph 67% 0.00 in 0 W/m2
20:00 26.7 °F 17.2 °F 30.08 in NNW 6 mph 6 mph 67% 0.00 in 0 W/m2
20:05 26.6 °F 16.8 °F 30.08 in NNE 7 mph 7 mph 66% 0.00 in 0 W/m2
20:10 26.5 °F 16.7 °F 30.08 in North 7 mph 8 mph 66% 0.00 in 0 W/m2
20:15 26.4 °F 16.6 °F 30.07 in NNW 6 mph 11 mph 66% 0.00 in 0 W/m2
20:20 26.2 °F 16.7 °F 30.08 in North 6 mph 7 mph 67% 0.00 in 0 W/m2
20:25 26 °F 16.9 °F 30.08 in North 6 mph 7 mph 68% 0.00 in 0 W/m2
20:30 25.8 °F 16.7 °F 30.08 in NNW 6 mph 6 mph 68% 0.00 in 0 W/m2
20:35 25.7 °F 16.9 °F 30.08 in North 6 mph 6 mph 69% 0.00 in 0 W/m2
20:40 25.6 °F 16.5 °F 30.08 in NNW 5 mph 10 mph 68% 0.00 in 0 W/m2
20:45 25.6 °F 16.5 °F 30.08 in NNW 6 mph 10 mph 68% 0.00 in 0 W/m2
20:50 25.4 °F 16.6 °F 30.08 in North 5 mph 5 mph 69% 0.00 in 0 W/m2
20:55 25.6 °F 16.5 °F 30.08 in North 5 mph 5 mph 68% 0.00 in 0 W/m2
21:00 25.6 °F 16.5 °F 30.08 in North 6 mph 11 mph 68% 0.00 in 0 W/m2
21:05 25.4 °F 16.3 °F 30.08 in North 6 mph 11 mph 68% 0.00 in 0 W/m2
21:10 25.3 °F 16.2 °F 30.08 in NW 5 mph 5 mph 68% 0.00 in 0 W/m2
21:15 25.1 °F 16.7 °F 30.08 in NNW 5 mph 5 mph 70% 0.00 in 0 W/m2
21:20 25.1 °F 16.7 °F 30.08 in NNW 5 mph 5 mph 70% 0.00 in 0 W/m2
21:25 25 °F 16.9 °F 30.08 in NNW 5 mph 5 mph 71% 0.00 in 0 W/m2
21:30 24.9 °F 16.8 °F 30.07 in NNW 6 mph 6 mph 71% 0.00 in 0 W/m2
21:35 24.8 °F 16.7 °F 30.07 in North 6 mph 6 mph 71% 0.00 in 0 W/m2
21:40 24.8 °F 16.7 °F 30.07 in North 5 mph 9 mph 71% 0.00 in 0 W/m2
21:45 24.9 °F 16.8 °F 30.07 in North 5 mph 9 mph 71% 0.00 in 0 W/m2
21:50 24.8 °F 17.1 °F 30.07 in North 6 mph 6 mph 72% 0.00 in 0 W/m2
21:55 24.8 °F 17.1 °F 30.07 in NW 6 mph 10 mph 72% 0.00 in 0 W/m2
22:00 25 °F 17.2 °F 30.07 in NNW 6 mph 6 mph 72% 0.00 in 0 W/m2
22:05 24.9 °F 17.5 °F 30.07 in NW 5 mph 6 mph 73% 0.00 in 0 W/m2
22:10 24.7 °F 17.3 °F 30.07 in NNW 4 mph 4 mph 73% 0.00 in 0 W/m2
22:15 24.6 °F 17.5 °F 30.07 in NNW 4 mph 4 mph 74% 0.00 in 0 W/m2
22:20 24.6 °F 17.5 °F 30.07 in NNE 4 mph 5 mph 74% 0.00 in 0 W/m2
22:25 24.6 °F 17.2 °F 30.07 in NW 4 mph 5 mph 73% 0.00 in 0 W/m2
22:30 24.6 °F 17.5 °F 30.07 in NW 5 mph 5 mph 74% 0.00 in 0 W/m2
22:35 24.5 °F 17.4 °F 30.07 in North 5 mph 5 mph 74% 0.00 in 0 W/m2
22:40 24.5 °F 17.4 °F 30.07 in NNW 5 mph 5 mph 74% 0.00 in 0 W/m2
22:45 24.5 °F 17.4 °F 30.06 in NW 5 mph 13 mph 74% 0.00 in 0 W/m2
22:50 24.3 °F 17.2 °F 30.06 in NW 5 mph 9 mph 74% 0.00 in 0 W/m2
22:55 24.2 °F 17.4 °F 30.07 in NNW 5 mph 9 mph 75% 0.00 in 0 W/m2
23:00 24.2 °F 17.4 °F 30.07 in NNW 5 mph 5 mph 75% 0.00 in 0 W/m2
23:05 24.2 °F 17.4 °F 30.06 in NNW 5 mph 5 mph 75% 0.00 in 0 W/m2
23:10 24.1 °F 17.3 °F 30.06 in NW 5 mph 5 mph 75% 0.00 in 0 W/m2
23:15 24.1 °F 17.3 °F 30.06 in NNW 4 mph 5 mph 75% 0.00 in 0 W/m2
23:20 24 °F 17.5 °F 30.06 in North 4 mph 8 mph 76% 0.00 in 0 W/m2
23:25 24.1 °F 17.6 °F 30.05 in NNW 5 mph 8 mph 76% 0.00 in 0 W/m2
23:30 24 °F 17.8 °F 30.05 in NNW 5 mph 9 mph 77% 0.00 in 0 W/m2
23:35 24 °F 17.8 °F 30.05 in NNW 5 mph 9 mph 77% 0.00 in 0 W/m2
23:40 24 °F 17.8 °F 30.05 in North 5 mph 5 mph 77% 0.00 in 0 W/m2
23:45 23.9 °F 17.7 °F 30.05 in WNW 5 mph 7 mph 77% 0.00 in 0 W/m2
23:50 24 °F 17.8 °F 30.05 in NNW 6 mph 6 mph 77% 0.00 in 0 W/m2
23:55 23.8 °F 17.9 °F 30.05 in NNW 5 mph 9 mph 78% 0.00 in 0 W/m2
Sand Point, Michigan, USA
Compliments of Weather Underground - 2 mb